Time;durP1;ratioP1;P1;durP2;ratioP2;P2;SDS_P1;SDS_P2;PMS_P1;PMS_P2;Temp;Humidity;BMP_temperature;BMP_pressure;BME280_temperature;BME280_humidity;BME280_pressure;Samples;Min_cycle;Max_cycle;Signal;HPM_P1;HPM_P2
2021/06/05 00:02:20;;;;;;;27.80;19.10;;;;;;;;;;5013949;28;20492;-46
2021/06/05 00:04:47;;;;;;;25.08;17.52;;;;;;;;;;5013672;28;20100;-49
2021/06/05 00:07:13;;;;;;;27.10;17.25;;;;;;;;;;5011527;28;20122;-51
2021/06/05 00:09:41;;;;;;;23.45;17.40;;;;;;;;;;5013577;28;20108;-50
2021/06/05 00:12:08;;;;;;;22.70;17.45;;;;;;;;;;5013772;28;20512;-50
2021/06/05 00:14:35;;;;;;;23.25;17.25;;;;;;;;;;5013378;28;20132;-52
2021/06/05 00:17:01;;;;;;;25.98;17.58;;;;;;;;;;5012684;28;20050;-45
2021/06/05 00:19:28;;;;;;;24.15;16.42;;;;;;;;;;5013359;28;20503;-50
2021/06/05 00:21:55;;;;;;;20.92;15.98;;;;;;;;;;5013242;28;20462;-47
2021/06/05 00:24:22;;;;;;;20.25;16.30;;;;;;;;;;5016558;28;20050;-43
2021/06/05 00:26:50;;;;;;;15.02;13.40;;;;;;;;;;5032220;28;20057;-49
2021/06/05 00:29:18;;;;;;;20.08;16.13;;;;;;;;;;5023427;28;20093;-50
2021/06/05 00:31:44;;;;;;;22.02;17.27;;;;;;;;;;5013347;28;20559;-44
2021/06/05 00:34:12;;;;;;;20.67;16.20;;;;;;;;;;5013193;28;20070;-46
2021/06/05 00:36:39;;;;;;;19.75;15.05;;;;;;;;;;5012447;28;20235;-45
2021/06/05 00:39:06;;;;;;;16.27;13.23;;;;;;;;;;5012876;28;20046;-46
2021/06/05 00:41:33;;;;;;;14.23;12.73;;;;;;;;;;5013034;28;20498;-48
2021/06/05 00:44:04;;;;;;;17.63;14.07;;;;;;;;;;5011657;28;20503;-47
2021/06/05 00:46:31;;;;;;;14.68;12.68;;;;;;;;;;5012206;28;20042;-47
2021/06/05 00:48:59;;;;;;;12.13;10.82;;;;;;;;;;5012594;28;20388;-51
2021/06/05 00:51:34;;;;;;;12.75;11.45;;;;;;;;;;5011937;28;20132;-46
2021/06/05 00:54:04;;;;;;;11.80;10.55;;;;;;;;;;5011539;28;20042;-44
2021/06/05 00:56:31;;;;;;;12.40;10.43;;;;;;;;;;5011972;28;20133;-44
2021/06/05 00:58:58;;;;;;;13.20;10.13;;;;;;;;;;5012493;28;20073;-49
2021/06/05 01:01:28;;;;;;;11.85;10.55;;;;;;;;;;5027462;28;20054;-43
2021/06/05 01:03:56;;;;;;;10.10;9.10;;;;;;;;;;5011733;28;20050;-46
2021/06/05 01:06:27;;;;;;;11.43;10.27;;;;;;;;;;5010552;28;20057;-46
2021/06/05 01:09:01;;;;;;;10.48;9.48;;;;;;;;;;5029528;28;20037;-48
2021/06/05 01:11:50;;;;;;;10.70;9.05;;;;;;;;;;5032519;28;20513;-48
2021/06/05 01:14:55;;;;;;;10.15;9.15;;;;;;;;;;5031888;28;20438;-47
2021/06/05 01:17:27;;;;;;;10.02;9.02;;;;;;;;;;4928245;29;20040;-46
2021/06/05 01:19:58;;;;;;;7.73;6.80;;;;;;;;;;5020466;28;20046;-46
2021/06/05 01:22:26;;;;;;;7.57;5.60;;;;;;;;;;5028742;28;20184;-47
2021/06/05 01:25:12;;;;;;;6.35;4.80;;;;;;;;;;5027846;28;20042;-46
2021/06/05 01:27:43;;;;;;;6.20;4.93;;;;;;;;;;5043170;28;20045;-46
2021/06/05 01:30:21;;;;;;;5.97;5.32;;;;;;;;;;5029312;28;20130;-46
2021/06/05 01:32:51;;;;;;;6.00;5.40;;;;;;;;;;5030638;28;20107;-45
2021/06/05 01:35:21;;;;;;;6.18;5.35;;;;;;;;;;5030795;28;20084;-50
2021/06/05 01:37:49;;;;;;;7.65;5.55;;;;;;;;;;5025347;28;20104;-45
2021/06/05 01:40:20;;;;;;;6.05;5.45;;;;;;;;;;5030830;28;20061;-47
2021/06/05 01:42:47;;;;;;;7.43;6.72;;;;;;;;;;5030741;28;20049;-46
2021/06/05 01:45:24;;;;;;;6.97;6.30;;;;;;;;;;5017824;28;20136;-47
2021/06/05 01:47:53;;;;;;;6.60;6.00;;;;;;;;;;5022494;28;20052;-47
2021/06/05 01:50:23;;;;;;;7.47;5.82;;;;;;;;;;5030181;28;20092;-48
2021/06/05 01:52:51;;;;;;;6.90;6.20;;;;;;;;;;5027018;28;20045;-45
2021/06/05 01:55:30;;;;;;;8.70;6.15;;;;;;;;;;5026487;28;20493;-47
2021/06/05 01:58:02;;;;;;;7.07;6.38;;;;;;;;;;5023776;28;20490;-46
2021/06/05 02:00:38;;;;;;;7.47;6.63;;;;;;;;;;5028466;28;20119;-45
2021/06/05 02:03:07;;;;;;;7.30;6.60;;;;;;;;;;5030158;28;20774;-45
2021/06/05 02:05:38;;;;;;;8.07;6.15;;;;;;;;;;5029902;28;20516;-46
2021/06/05 02:08:12;;;;;;;7.97;6.13;;;;;;;;;;5026596;28;20491;-48
2021/06/05 02:10:40;;;;;;;8.40;7.60;;;;;;;;;;5028503;28;20053;-49
2021/06/05 02:13:15;;;;;;;9.05;7.75;;;;;;;;;;5029367;28;20073;-45
2021/06/05 02:15:52;;;;;;;9.18;8.15;;;;;;;;;;5029911;28;20049;-44
2021/06/05 02:18:28;;;;;;;8.98;8.07;;;;;;;;;;5027393;28;20506;-45
2021/06/05 02:21:07;;;;;;;10.27;7.82;;;;;;;;;;5033647;28;20494;-44
2021/06/05 02:23:34;;;;;;;;;;;;;;;;;;5027314;28;20049;-49
2021/06/05 02:26:01;;;;;;;10.18;9.18;;;;;;;;;;5028416;28;20043;-45
2021/06/05 02:28:29;;;;;;;9.90;8.90;;;;;;;;;;5027044;28;20071;-46
2021/06/05 02:30:56;;;;;;;10.43;9.43;;;;;;;;;;5016354;28;20096;-46
2021/06/05 02:33:23;;;;;;;10.43;9.18;;;;;;;;;;5029815;28;20045;-45
2021/06/05 02:35:54;;;;;;;11.07;9.98;;;;;;;;;;5029091;28;20058;-46
2021/06/05 02:38:36;;;;;;;11.65;9.98;;;;;;;;;;5014643;28;20050;-46
2021/06/05 02:41:07;;;;;;;14.05;10.43;;;;;;;;;;5016720;28;20053;-46
2021/06/05 02:43:36;;;;;;;11.02;9.95;;;;;;;;;;5029359;28;20060;-46
2021/06/05 02:46:07;;;;;;;11.95;10.43;;;;;;;;;;5028952;28;20096;-44
2021/06/05 02:48:44;;;;;;;11.98;10.77;;;;;;;;;;5018277;28;20042;-47
2021/06/05 02:51:13;;;;;;;12.27;11.07;;;;;;;;;;5029733;28;20495;-48
2021/06/05 02:53:41;;;;;;;11.27;10.18;;;;;;;;;;5029622;28;20049;-48
2021/06/05 02:56:11;;;;;;;13.57;12.18;;;;;;;;;;5028065;28;20112;-44
2021/06/05 02:58:39;;;;;;;12.45;11.25;;;;;;;;;;5027756;28;20065;-45
2021/06/05 03:01:09;;;;;;;13.18;11.88;;;;;;;;;;5029041;28;20194;-45
2021/06/05 03:03:38;;;;;;;12.98;11.68;;;;;;;;;;5028794;28;20108;-47
2021/06/05 03:06:06;;;;;;;13.52;12.23;;;;;;;;;;5028506;28;20045;-46
2021/06/05 03:08:37;;;;;;;14.00;12.63;;;;;;;;;;5018011;28;20081;-46
2021/06/05 03:11:06;;;;;;;15.10;12.25;;;;;;;;;;5036869;28;20493;-45
2021/06/05 03:13:35;;;;;;;14.38;12.75;;;;;;;;;;5028952;28;20049;-46
2021/06/05 03:16:03;;;;;;;15.07;12.95;;;;;;;;;;5028652;28;20124;-45
2021/06/05 03:18:36;;;;;;;;;;;;;;;;;;5011393;28;20057;-51
2021/06/05 03:21:07;;;;;;;14.05;12.45;;;;;;;;;;5030295;28;19974;-47
2021/06/05 03:23:34;;;;;;;15.15;12.60;;;;;;;;;;5028468;28;20057;-45
2021/06/05 03:26:05;;;;;;;13.75;11.70;;;;;;;;;;5030630;28;20060;-47
2021/06/05 03:28:36;;;;;;;14.02;12.65;;;;;;;;;;5028926;28;20037;-43
2021/06/05 03:31:08;;;;;;;12.98;11.48;;;;;;;;;;5043901;23;20045;-54
2021/06/05 03:33:37;;;;;;;15.55;12.02;;;;;;;;;;5025803;28;20041;-51
2021/06/05 03:36:08;;;;;;;13.35;11.20;;;;;;;;;;5033747;28;20077;-45
2021/06/05 03:38:35;;;;;;;12.75;10.90;;;;;;;;;;5030934;28;20058;-46
2021/06/05 03:41:04;;;;;;;11.73;10.52;;;;;;;;;;5033171;28;20057;-49
2021/06/05 03:43:32;;;;;;;11.40;10.20;;;;;;;;;;5015820;28;20060;-46
2021/06/05 03:45:59;;;;;;;10.68;9.57;;;;;;;;;;5032409;28;20037;-49
2021/06/05 03:48:28;;;;;;;10.68;9.57;;;;;;;;;;5028283;28;20115;-47
2021/06/05 03:50:56;;;;;;;10.73;9.63;;;;;;;;;;5030705;28;20042;-50
2021/06/05 03:53:25;;;;;;;10.35;9.25;;;;;;;;;;5031729;28;20044;-51
2021/06/05 03:55:53;;;;;;;13.52;9.65;;;;;;;;;;5032826;28;20077;-47
2021/06/05 03:58:27;;;;;;;10.75;8.55;;;;;;;;;;5017088;28;20054;-48
2021/06/05 04:00:56;;;;;;;12.88;8.55;;;;;;;;;;5032677;28;20053;-49
2021/06/05 04:03:23;;;;;;;9.38;8.48;;;;;;;;;;5032878;28;20049;-48
2021/06/05 04:05:50;;;;;;;10.88;8.57;;;;;;;;;;5033671;28;20119;-50
2021/06/05 04:08:17;;;;;;;9.32;8.43;;;;;;;;;;5022261;28;20056;-47
2021/06/05 04:10:44;;;;;;;9.55;8.52;;;;;;;;;;5033677;28;20061;-49
2021/06/05 04:13:10;;;;;;;8.90;7.50;;;;;;;;;;5032737;28;20065;-47
2021/06/05 04:15:37;;;;;;;10.15;7.85;;;;;;;;;;5025932;28;20062;-48
2021/06/05 04:18:04;;;;;;;8.82;7.93;;;;;;;;;;5013285;28;20050;-52
2021/06/05 04:20:35;;;;;;;10.32;7.15;;;;;;;;;;5033399;28;20109;-49
2021/06/05 04:23:02;;;;;;;8.27;7.38;;;;;;;;;;5031737;28;20641;-48
2021/06/05 04:25:29;;;;;;;9.57;7.28;;;;;;;;;;5032752;28;20103;-51
2021/06/05 04:27:56;;;;;;;7.80;7.00;;;;;;;;;;5031803;28;20050;-54
2021/06/05 04:30:24;;;;;;;7.70;6.80;;;;;;;;;;5028204;28;20053;-50
2021/06/05 04:32:50;;;;;;;10.25;7.28;;;;;;;;;;5029201;28;20391;-51
2021/06/05 04:35:17;;;;;;;10.77;8.10;;;;;;;;;;5031444;28;20053;-53
2021/06/05 04:37:45;;;;;;;8.18;7.00;;;;;;;;;;5027012;28;20050;-50
2021/06/05 04:40:12;;;;;;;7.85;6.85;;;;;;;;;;5017690;28;20053;-51
2021/06/05 04:42:39;;;;;;;8.30;7.40;;;;;;;;;;5031825;28;20050;-50
2021/06/05 04:45:06;;;;;;;8.77;7.15;;;;;;;;;;5031114;28;20042;-51
2021/06/05 04:47:33;;;;;;;10.95;7.47;;;;;;;;;;5029411;28;20050;-51
2021/06/05 04:50:01;;;;;;;9.88;7.22;;;;;;;;;;5031065;28;20147;-51
2021/06/05 04:52:28;;;;;;;8.68;7.05;;;;;;;;;;5031114;28;20115;-47
2021/06/05 04:54:55;;;;;;;9.13;7.55;;;;;;;;;;5031133;28;20068;-47
2021/06/05 04:57:22;;;;;;;8.27;6.72;;;;;;;;;;5029544;28;20053;-50
2021/06/05 04:59:49;;;;;;;8.25;6.85;;;;;;;;;;5018957;28;20125;-47
2021/06/05 05:02:16;;;;;;;7.85;6.50;;;;;;;;;;5027104;28;20046;-46
2021/06/05 05:04:43;;;;;;;8.27;6.88;;;;;;;;;;5030473;28;20506;-47
2021/06/05 05:07:11;;;;;;;7.53;5.95;;;;;;;;;;5031863;28;20057;-52
2021/06/05 05:09:38;;;;;;;6.88;6.13;;;;;;;;;;5022275;28;20061;-50
2021/06/05 05:12:05;;;;;;;8.40;5.85;;;;;;;;;;5031953;28;20049;-50
2021/06/05 05:14:33;;;;;;;6.15;5.25;;;;;;;;;;5030523;28;20076;-50
2021/06/05 05:17:00;;;;;;;6.72;5.47;;;;;;;;;;5029833;28;20080;-49
2021/06/05 05:19:27;;;;;;;9.52;5.65;;;;;;;;;;5032741;28;20120;-50
2021/06/05 05:21:54;;;;;;;6.88;5.07;;;;;;;;;;5035817;28;20044;-49
2021/06/05 05:24:20;;;;;;;7.95;5.80;;;;;;;;;;5046225;28;20129;-55
2021/06/05 05:26:47;;;;;;;5.80;4.57;;;;;;;;;;5031032;28;20041;-53
2021/06/05 05:29:14;;;;;;;4.78;4.28;;;;;;;;;;5028044;28;20042;-46
2021/06/05 05:31:41;;;;;;;6.90;4.20;;;;;;;;;;5033507;28;20057;-53
2021/06/05 05:34:08;;;;;;;5.38;4.15;;;;;;;;;;5046310;28;20075;-49
2021/06/05 05:36:36;;;;;;;5.60;4.22;;;;;;;;;;5031488;28;20057;-45
2021/06/05 05:39:04;;;;;;;5.97;3.72;;;;;;;;;;5021091;28;20188;-55
2021/06/05 05:41:33;;;;;;;4.57;3.40;;;;;;;;;;5033148;28;20042;-51
2021/06/05 05:43:59;;;;;;;5.43;3.50;;;;;;;;;;5031338;28;20136;-53
2021/06/05 05:46:28;;;;;;;4.90;3.58;;;;;;;;;;5027824;28;20438;-50
2021/06/05 05:48:55;;;;;;;5.93;4.10;;;;;;;;;;5031553;28;20057;-54
2021/06/05 05:51:22;;;;;;;4.43;3.40;;;;;;;;;;5030934;28;20053;-52
2021/06/05 05:53:49;;;;;;;4.75;2.88;;;;;;;;;;5029479;28;20041;-54
2021/06/05 05:56:17;;;;;;;3.85;2.90;;;;;;;;;;5026463;28;20556;-51
2021/06/05 05:58:46;;;;;;;4.30;2.80;;;;;;;;;;5028571;28;20430;-50
2021/06/05 06:01:14;;;;;;;3.60;2.60;;;;;;;;;;5030158;28;20049;-50
2021/06/05 06:03:42;;;;;;;4.28;3.00;;;;;;;;;;5030072;28;20073;-50
2021/06/05 06:06:09;;;;;;;3.95;3.00;;;;;;;;;;5031806;28;20049;-48
2021/06/05 06:08:36;;;;;;;4.55;2.97;;;;;;;;;;5019640;28;20073;-48
2021/06/05 06:11:04;;;;;;;5.18;3.00;;;;;;;;;;5030530;28;20571;-51
2021/06/05 06:13:31;;;;;;;5.05;2.45;;;;;;;;;;5029501;28;20054;-52
2021/06/05 06:15:58;;;;;;;3.30;2.35;;;;;;;;;;5028592;28;20045;-51
2021/06/05 06:18:25;;;;;;;3.03;2.15;;;;;;;;;;5020595;28;20049;-52
2021/06/05 06:20:52;;;;;;;5.97;2.40;;;;;;;;;;5030537;28;20192;-48
2021/06/05 06:23:24;;;;;;;4.68;1.88;;;;;;;;;;5028809;28;20394;-51
2021/06/05 06:25:52;;;;;;;3.33;2.53;;;;;;;;;;5029118;28;20042;-48
2021/06/05 06:28:21;;;;;;;7.55;2.00;;;;;;;;;;5028355;28;20128;-53
2021/06/05 06:30:48;;;;;;;4.35;1.85;;;;;;;;;;5019597;28;20045;-55
2021/06/05 06:33:16;;;;;;;4.13;2.33;;;;;;;;;;5028809;28;20395;-49
2021/06/05 06:35:43;;;;;;;3.05;1.67;;;;;;;;;;5030505;28;20065;-50
2021/06/05 06:38:12;;;;;;;4.35;1.58;;;;;;;;;;5028017;28;21897;-51
2021/06/05 06:40:39;;;;;;;2.28;1.40;;;;;;;;;;5026788;28;20101;-48
2021/06/05 06:43:07;;;;;;;2.95;1.50;;;;;;;;;;5030545;28;20411;-50
2021/06/05 06:45:43;;;;;;;3.78;1.58;;;;;;;;;;5030521;28;20511;-49
2021/06/05 06:48:10;;;;;;;2.83;1.58;;;;;;;;;;5025280;28;20060;-51
2021/06/05 06:50:37;;;;;;;3.15;1.30;;;;;;;;;;5021561;28;20092;-51
2021/06/05 06:53:04;;;;;;;1.92;1.10;;;;;;;;;;5030318;28;20111;-49
2021/06/05 06:55:31;;;;;;;2.05;1.30;;;;;;;;;;5029671;28;20136;-52
2021/06/05 06:57:58;;;;;;;2.10;1.20;;;;;;;;;;5021530;28;20517;-50
2021/06/05 07:00:45;;;;;;;3.20;1.10;;;;;;;;;;5016185;28;20191;-47
2021/06/05 07:03:13;;;;;;;1.77;1.10;;;;;;;;;;5014181;28;20062;-48
2021/06/05 07:05:40;;;;;;;3.45;1.15;;;;;;;;;;5016919;28;20050;-53
2021/06/05 07:08:09;;;;;;;1.17;0.98;;;;;;;;;;5024004;28;20050;-49
2021/06/05 07:10:36;;;;;;;1.98;1.10;;;;;;;;;;5030541;28;20127;-55
2021/06/05 07:13:04;;;;;;;2.25;1.15;;;;;;;;;;5033797;28;20053;-51
2021/06/05 07:15:31;;;;;;;1.42;0.85;;;;;;;;;;5034795;28;20049;-49
2021/06/05 07:17:59;;;;;;;2.95;1.00;;;;;;;;;;5018889;28;20050;-46
2021/06/05 07:20:26;;;;;;;1.70;1.20;;;;;;;;;;5019222;28;20065;-48
2021/06/05 07:22:53;;;;;;;1.92;1.20;;;;;;;;;;5032894;28;20049;-50
2021/06/05 07:25:20;;;;;;;1.52;1.10;;;;;;;;;;5039082;28;20414;-47
2021/06/05 07:27:48;;;;;;;2.33;1.42;;;;;;;;;;5027933;28;20042;-56
2021/06/05 07:30:15;;;;;;;2.47;1.33;;;;;;;;;;5032376;28;20068;-51
2021/06/05 07:32:42;;;;;;;1.70;1.20;;;;;;;;;;5036660;28;20517;-49
2021/06/05 07:35:09;;;;;;;3.25;1.55;;;;;;;;;;5032775;28;20045;-51
2021/06/05 07:37:36;;;;;;;2.10;1.55;;;;;;;;;;5033382;28;20065;-49
2021/06/05 07:40:07;;;;;;;2.30;1.20;;;;;;;;;;5029410;28;20057;-45
2021/06/05 07:42:35;;;;;;;1.98;1.20;;;;;;;;;;5031098;28;20049;-48
2021/06/05 07:45:03;;;;;;;3.72;1.27;;;;;;;;;;5046881;28;20461;-46
2021/06/05 07:47:30;;;;;;;3.10;1.20;;;;;;;;;;5038051;28;20068;-47
2021/06/05 07:49:56;;;;;;;3.70;1.23;;;;;;;;;;5051374;28;20584;-50
2021/06/05 07:52:24;;;;;;;2.08;1.27;;;;;;;;;;5030363;28;20427;-50
2021/06/05 07:54:52;;;;;;;1.77;1.30;;;;;;;;;;5054183;28;20052;-55
2021/06/05 07:57:22;;;;;;;2.30;1.30;;;;;;;;;;5046002;28;20461;-49
2021/06/05 07:59:50;;;;;;;2.95;1.50;;;;;;;;;;5020881;28;20058;-49
2021/06/05 08:02:17;;;;;;;2.30;1.30;;;;;;;;;;5014498;28;20085;-48
2021/06/05 08:04:44;;;;;;;2.28;1.10;;;;;;;;;;5026430;28;20144;-53
2021/06/05 08:07:11;;;;;;;1.35;0.98;;;;;;;;;;5033679;28;20104;-53
2021/06/05 08:09:40;;;;;;;1.83;0.90;;;;;;;;;;5030816;28;20045;-53
2021/06/05 08:12:07;;;;;;;2.55;1.30;;;;;;;;;;5031766;28;20045;-48
2021/06/05 08:14:34;;;;;;;1.63;1.20;;;;;;;;;;5029570;28;20069;-50
2021/06/05 08:17:01;;;;;;;2.63;1.10;;;;;;;;;;5033414;28;20513;-53
2021/06/05 08:19:28;;;;;;;2.03;1.20;;;;;;;;;;5032717;28;20073;-52
2021/06/05 08:21:55;;;;;;;2.90;1.10;;;;;;;;;;5033554;28;20124;-52
2021/06/05 08:24:23;;;;;;;3.05;1.20;;;;;;;;;;5026027;28;20049;-49
2021/06/05 08:26:50;;;;;;;2.25;1.25;;;;;;;;;;5032580;28;20041;-50
2021/06/05 08:29:17;;;;;;;5.15;1.50;;;;;;;;;;5025250;28;20050;-52
2021/06/05 08:31:44;;;;;;;3.28;1.30;;;;;;;;;;5031432;28;20057;-53
2021/06/05 08:34:11;;;;;;;3.30;1.40;;;;;;;;;;5030847;28;20139;-52
2021/06/05 08:36:38;;;;;;;1.38;1.00;;;;;;;;;;5032114;28;20041;-49
2021/06/05 08:39:06;;;;;;;2.63;1.30;;;;;;;;;;5033873;28;20127;-55
2021/06/05 08:41:37;;;;;;;2.60;1.23;;;;;;;;;;5027650;28;20096;-51
2021/06/05 08:44:20;;;;;;;2.80;1.13;;;;;;;;;;5033279;28;20049;-50
2021/06/05 08:47:19;;;;;;;2.40;1.27;;;;;;;;;;5031440;28;20042;-49
2021/06/05 08:49:46;;;;;;;2.88;1.20;;;;;;;;;;4989685;28;20049;-49
2021/06/05 08:52:26;;;;;;;10.05;1.40;;;;;;;;;;5028932;28;20560;-55
2021/06/05 08:54:56;;;;;;;3.25;1.00;;;;;;;;;;5029057;28;20070;-49
2021/06/05 08:57:34;;;;;;;2.17;1.20;;;;;;;;;;5030632;28;20123;-51
2021/06/05 09:00:13;;;;;;;2.17;1.17;;;;;;;;;;5029324;28;20128;-52
2021/06/05 09:02:41;;;;;;;1.40;0.93;;;;;;;;;;5028700;28;20176;-50
2021/06/05 09:05:10;;;;;;;1.10;0.95;;;;;;;;;;5031941;28;20053;-51
2021/06/05 09:07:37;;;;;;;3.58;1.30;;;;;;;;;;5029731;28;20046;-51
2021/06/05 09:10:07;;;;;;;2.65;1.30;;;;;;;;;;5030295;28;20045;-51
2021/06/05 09:12:34;;;;;;;1.38;0.93;;;;;;;;;;5030853;28;20046;-49
2021/06/05 09:15:01;;;;;;;1.95;1.10;;;;;;;;;;5027337;28;20046;-49
2021/06/05 09:17:32;;;;;;;2.30;1.00;;;;;;;;;;5026086;28;20095;-50
2021/06/05 09:20:13;;;;;;;2.95;1.15;;;;;;;;;;5029971;28;20053;-52
2021/06/05 09:22:42;;;;;;;2.53;1.33;;;;;;;;;;5023268;28;20125;-51
2021/06/05 09:25:24;;;;;;;3.72;1.10;;;;;;;;;;5027838;28;20125;-50
2021/06/05 09:27:50;;;;;;;3.97;1.40;;;;;;;;;;5028807;28;20423;-54
2021/06/05 09:30:23;;;;;;;1.80;1.17;;;;;;;;;;5028300;28;20045;-50
2021/06/05 09:32:50;;;;;;;1.77;1.30;;;;;;;;;;5030339;28;20054;-54
2021/06/05 09:35:21;;;;;;;3.33;1.35;;;;;;;;;;5035384;28;20455;-49
2021/06/05 09:37:51;;;;;;;2.92;1.20;;;;;;;;;;5029518;28;20053;-52
2021/06/05 09:40:18;;;;;;;2.08;1.23;;;;;;;;;;5008657;28;20056;-49
2021/06/05 09:42:47;;;;;;;2.42;1.20;;;;;;;;;;5030369;28;20096;-50
2021/06/05 09:45:20;;;;;;;2.05;1.20;;;;;;;;;;5030799;28;20049;-52
2021/06/05 09:47:47;;;;;;;2.05;0.90;;;;;;;;;;5016883;28;20057;-47
2021/06/05 09:50:23;;;;;;;3.60;1.10;;;;;;;;;;5027364;28;20439;-47
2021/06/05 09:52:50;;;;;;;1.48;0.70;;;;;;;;;;5030962;28;20111;-50
2021/06/05 09:55:19;;;;;;;1.05;0.80;;;;;;;;;;5021231;28;20045;-50
2021/06/05 09:57:47;;;;;;;2.25;0.60;;;;;;;;;;5017088;28;20056;-51
2021/06/05 10:00:14;;;;;;;3.00;0.93;;;;;;;;;;5022420;28;20064;-48
2021/06/05 10:02:45;;;;;;;2.42;1.10;;;;;;;;;;5030591;28;20045;-49
2021/06/05 10:05:30;;;;;;;0.95;0.75;;;;;;;;;;5030476;28;20053;-46
2021/06/05 10:07:58;;;;;;;0.80;0.70;;;;;;;;;;5028746;28;20100;-50
2021/06/05 10:10:40;;;;;;;2.22;1.17;;;;;;;;;;5021124;28;20053;-54
2021/06/05 10:13:20;;;;;;;0.82;0.65;;;;;;;;;;5041189;28;20071;-50
2021/06/05 10:15:56;;;;;;;1.25;0.77;;;;;;;;;;5010510;28;20073;-47
2021/06/05 10:18:36;;;;;;;1.50;0.80;;;;;;;;;;5023846;28;20053;-52
2021/06/05 10:21:21;;;;;;;1.17;0.80;;;;;;;;;;5031669;28;20115;-45
2021/06/05 10:23:51;;;;;;;1.15;0.70;;;;;;;;;;5029829;28;20054;-51
2021/06/05 10:26:31;;;;;;;1.70;0.98;;;;;;;;;;5029629;28;20514;-50
2021/06/05 10:29:01;;;;;;;2.72;1.17;;;;;;;;;;5028112;28;20042;-48
2021/06/05 10:31:29;;;;;;;1.40;0.95;;;;;;;;;;5027663;28;20049;-50
2021/06/05 10:33:56;;;;;;;0.93;0.70;;;;;;;;;;5031823;28;20052;-53
2021/06/05 10:36:53;;;;;;;2.80;0.88;;;;;;;;;;5023684;28;20177;-51
2021/06/05 10:39:26;;;;;;;2.28;0.95;;;;;;;;;;5014778;28;20045;-51
2021/06/05 10:41:57;;;;;;;1.13;0.73;;;;;;;;;;5030111;28;20088;-48
2021/06/05 10:44:24;;;;;;;1.40;0.90;;;;;;;;;;5031244;28;20068;-50
2021/06/05 10:47:00;;;;;;;1.42;0.90;;;;;;;;;;5025192;28;20045;-48
2021/06/05 10:49:50;;;;;;;1.38;0.82;;;;;;;;;;5020405;28;20054;-48
2021/06/05 10:52:33;;;;;;;0.80;0.77;;;;;;;;;;5020429;28;20056;-50
2021/06/05 10:55:14;;;;;;;2.45;1.02;;;;;;;;;;5026307;28;20049;-47
2021/06/05 10:57:43;;;;;;;3.35;1.35;;;;;;;;;;5024941;28;20481;-51
2021/06/05 11:00:26;;;;;;;1.00;0.70;;;;;;;;;;5016077;28;20605;-51
2021/06/05 11:02:54;;;;;;;1.50;1.05;;;;;;;;;;5027348;28;20057;-50
2021/06/05 11:05:29;;;;;;;1.20;0.88;;;;;;;;;;5027240;28;20057;-50
2021/06/05 11:08:08;;;;;;;3.60;0.98;;;;;;;;;;5021457;28;20038;-47
2021/06/05 11:10:47;;;;;;;1.60;1.00;;;;;;;;;;5020276;28;20080;-52
2021/06/05 11:13:34;;;;;;;2.10;1.05;;;;;;;;;;5030231;28;20045;-48
2021/06/05 11:16:21;;;;;;;3.00;1.10;;;;;;;;;;5030268;28;20053;-50
2021/06/05 11:18:48;;;;;;;2.33;1.08;;;;;;;;;;5027013;28;20049;-48
2021/06/05 11:21:24;;;;;;;2.38;1.10;;;;;;;;;;5027762;28;20058;-51
2021/06/05 11:23:57;;;;;;;1.80;1.05;;;;;;;;;;5042872;28;20068;-47
2021/06/05 11:26:34;;;;;;;1.80;1.10;;;;;;;;;;5018701;28;20062;-49
2021/06/05 11:29:02;;;;;;;2.08;1.02;;;;;;;;;;5022958;28;20483;-52
2021/06/05 11:31:35;;;;;;;1.95;0.93;;;;;;;;;;5024252;28;20053;-55
2021/06/05 11:34:02;;;;;;;3.25;1.20;;;;;;;;;;5025686;28;20053;-50
2021/06/05 11:36:42;;;;;;;3.67;1.20;;;;;;;;;;5024278;28;20103;-55
2021/06/05 11:39:32;;;;;;;1.58;1.10;;;;;;;;;;5024876;28;20072;-49
2021/06/05 11:41:59;;;;;;;2.35;1.33;;;;;;;;;;5027083;28;20510;-54
2021/06/05 11:44:38;;;;;;;2.83;1.17;;;;;;;;;;5025890;28;21918;-53
2021/06/05 11:47:17;;;;;;;1.33;1.00;;;;;;;;;;5027061;28;20459;-53
2021/06/05 11:49:49;;;;;;;2.90;0.95;;;;;;;;;;5038778;28;20136;-47
2021/06/05 11:52:22;;;;;;;1.38;1.00;;;;;;;;;;5034255;28;20045;-50
2021/06/05 11:54:50;;;;;;;1.52;0.85;;;;;;;;;;5034083;28;20472;-52
2021/06/05 11:57:28;;;;;;;1.23;0.85;;;;;;;;;;5022971;28;20058;-47
2021/06/05 11:59:58;;;;;;;2.42;1.02;;;;;;;;;;5014269;28;20048;-52
2021/06/05 12:02:29;;;;;;;2.33;0.88;;;;;;;;;;5015514;28;20120;-49
2021/06/05 12:05:04;;;;;;;2.00;0.80;;;;;;;;;;5034097;28;20099;-53
2021/06/05 12:07:34;;;;;;;1.42;0.80;;;;;;;;;;5028879;28;20042;-54
2021/06/05 12:10:01;;;;;;;1.25;0.90;;;;;;;;;;5028460;28;20132;-50
2021/06/05 12:12:30;;;;;;;1.95;0.80;;;;;;;;;;5024559;28;20076;-52
2021/06/05 12:15:09;;;;;;;1.33;0.80;;;;;;;;;;5026369;28;20049;-50
2021/06/05 12:17:38;;;;;;;1.48;0.88;;;;;;;;;;5044354;28;20069;-50
2021/06/05 12:20:11;;;;;;;2.58;1.00;;;;;;;;;;5026964;28;20041;-51
2021/06/05 12:22:39;;;;;;;3.67;1.00;;;;;;;;;;5026796;28;20454;-55
2021/06/05 12:25:19;;;;;;;0.88;0.70;;;;;;;;;;5029281;28;20475;-53
2021/06/05 12:27:48;;;;;;;1.92;0.90;;;;;;;;;;5028677;28;20135;-50
2021/06/05 12:30:21;;;;;;;1.85;1.17;;;;;;;;;;5027823;28;20088;-54
2021/06/05 12:32:55;;;;;;;1.77;1.00;;;;;;;;;;5028036;28;20057;-48
2021/06/05 12:35:25;;;;;;;3.22;1.15;;;;;;;;;;5027395;28;20050;-55
2021/06/05 12:37:54;;;;;;;3.92;1.23;;;;;;;;;;5026629;28;20049;-53
2021/06/05 12:40:48;;;;;;;1.15;0.70;;;;;;;;;;5026974;28;20533;-56
2021/06/05 12:43:15;;;;;;;;;;;;;;;;;;5004468;28;20053;-51
2021/06/05 12:45:42;;;;;;;3.13;1.15;;;;;;;;;;5027106;28;19928;-49
2021/06/05 12:48:12;;;;;;;3.22;0.93;;;;;;;;;;5013647;28;20104;-51
2021/06/05 12:50:42;;;;;;;2.10;1.10;;;;;;;;;;5025004;28;20049;-49
2021/06/05 12:53:15;;;;;;;1.73;1.10;;;;;;;;;;5027525;28;20049;-51
2021/06/05 12:55:44;;;;;;;2.25;1.20;;;;;;;;;;5027612;28;20046;-49
2021/06/05 12:58:28;;;;;;;2.22;1.30;;;;;;;;;;5026091;28;20207;-53
2021/06/05 13:00:55;;;;;;;2.42;1.30;;;;;;;;;;5027687;28;20045;-47
2021/06/05 13:03:24;;;;;;;1.58;1.20;;;;;;;;;;5027471;28;20053;-50
2021/06/05 13:06:03;;;;;;;1.60;1.10;;;;;;;;;;5025217;28;20055;-54
2021/06/05 13:08:32;;;;;;;1.90;1.00;;;;;;;;;;5028507;28;20103;-51
2021/06/05 13:10:59;;;;;;;2.35;1.00;;;;;;;;;;5026567;28;20809;-53
2021/06/05 13:14:02;;;;;;;3.63;1.00;;;;;;;;;;5022492;28;20041;-49
2021/06/05 13:16:29;;;;;;;3.10;1.20;;;;;;;;;;5029346;28;20065;-54
2021/06/05 13:19:08;;;;;;;1.65;1.00;;;;;;;;;;5025643;28;20077;-47
2021/06/05 13:21:35;;;;;;;4.45;1.10;;;;;;;;;;5027105;28;20414;-47
2021/06/05 13:24:14;;;;;;;1.73;1.00;;;;;;;;;;5026342;28;20046;-49
2021/06/05 13:26:48;;;;;;;1.20;0.80;;;;;;;;;;5025531;28;20049;-49
2021/06/05 13:29:23;;;;;;;4.40;0.93;;;;;;;;;;5026694;28;20056;-49
2021/06/05 13:31:52;;;;;;;2.22;0.90;;;;;;;;;;5024144;28;20053;-49
2021/06/05 13:34:23;;;;;;;4.40;1.05;;;;;;;;;;5025022;28;20069;-56
2021/06/05 13:37:07;;;;;;;2.25;1.08;;;;;;;;;;5025132;28;20072;-52
2021/06/05 13:39:34;;;;;;;1.40;1.00;;;;;;;;;;5041092;28;20392;-53
2021/06/05 13:42:01;;;;;;;2.80;1.10;;;;;;;;;;5025445;28;20049;-49
2021/06/05 13:44:28;;;;;;;2.50;1.58;;;;;;;;;;5026583;28;20050;-51
2021/06/05 13:46:54;;;;;;;2.75;1.27;;;;;;;;;;5023767;28;20081;-54
2021/06/05 13:49:21;;;;;;;3.63;1.05;;;;;;;;;;5024589;28;20046;-55
2021/06/05 13:51:48;;;;;;;1.75;0.93;;;;;;;;;;5026492;28;20041;-49
2021/06/05 13:54:15;;;;;;;1.40;0.93;;;;;;;;;;5026105;28;20053;-50
2021/06/05 13:56:43;;;;;;;1.45;1.10;;;;;;;;;;5025687;28;20757;-52
2021/06/05 13:59:09;;;;;;;1.65;0.93;;;;;;;;;;5040311;28;20450;-53
2021/06/05 14:01:37;;;;;;;1.55;0.90;;;;;;;;;;5026318;28;20522;-62
2021/06/05 14:04:06;;;;;;;1.58;1.00;;;;;;;;;;5027778;28;20053;-65
2021/06/05 14:06:32;;;;;;;1.90;1.35;;;;;;;;;;5024993;28;20093;-56
2021/06/05 14:08:59;;;;;;;2.67;1.20;;;;;;;;;;5024761;28;20372;-59
2021/06/05 14:11:26;;;;;;;3.70;1.17;;;;;;;;;;5026000;28;20045;-53
2021/06/05 14:13:54;;;;;;;1.58;1.10;;;;;;;;;;5026375;28;20041;-56
2021/06/05 14:16:21;;;;;;;2.28;1.10;;;;;;;;;;5023761;28;20048;-60
2021/06/05 14:18:49;;;;;;;3.05;1.35;;;;;;;;;;5029157;28;20041;-52
2021/06/05 14:21:16;;;;;;;1.25;0.90;;;;;;;;;;5028965;28;20191;-59
2021/06/05 14:23:43;;;;;;;2.65;1.30;;;;;;;;;;5027131;28;20045;-56
2021/06/05 14:26:11;;;;;;;2.55;1.17;;;;;;;;;;5023897;28;20715;-54
2021/06/05 14:28:40;;;;;;;2.55;1.33;;;;;;;;;;5024054;28;20045;-56
2021/06/05 14:31:07;;;;;;;2.40;1.25;;;;;;;;;;5025334;28;20107;-55
2021/06/05 14:33:34;;;;;;;3.72;1.23;;;;;;;;;;5023237;28;20054;-61
2021/06/05 14:36:03;;;;;;;3.05;1.33;;;;;;;;;;5025827;28;20055;-57
2021/06/05 14:38:30;;;;;;;1.60;1.17;;;;;;;;;;5023378;28;20056;-58
2021/06/05 14:40:57;;;;;;;2.67;0.98;;;;;;;;;;5026462;28;20053;-52
2021/06/05 14:43:25;;;;;;;2.30;1.25;;;;;;;;;;5025771;28;20053;-57
2021/06/05 14:45:53;;;;;;;2.55;1.52;;;;;;;;;;5025394;28;20045;-55
2021/06/05 14:48:21;;;;;;;2.30;1.30;;;;;;;;;;5027251;28;20045;-55
2021/06/05 14:50:48;;;;;;;3.45;1.33;;;;;;;;;;5024938;28;20046;-55
2021/06/05 14:53:18;;;;;;;3.45;1.10;;;;;;;;;;5024924;28;20053;-57
2021/06/05 14:55:45;;;;;;;2.60;1.30;;;;;;;;;;5024471;28;20049;-59
2021/06/05 14:58:13;;;;;;;1.80;1.10;;;;;;;;;;5027082;28;20099;-55